sensor_id;sensor_type;location;lat;lon;timestamp;P1;durP1;ratioP1;P2;durP2;ratioP2
3257;SDS011;1641;51.306;12.384;2023-08-21T02:25:33;5.22;;;4.38;;
3257;SDS011;1641;51.306;12.384;2023-08-21T02:30:58;10.95;;;4.38;;
3257;SDS011;1641;51.306;12.384;2023-08-21T02:33:23;5.85;;;5.03;;
3257;SDS011;1641;51.306;12.384;2023-08-21T02:35:49;9.30;;;4.00;;
3257;SDS011;1641;51.306;12.384;2023-08-21T02:38:14;8.95;;;4.53;;
3257;SDS011;1641;51.306;12.384;2023-08-21T02:40:39;5.35;;;4.40;;
3257;SDS011;1641;51.306;12.384;2023-08-21T02:43:05;5.55;;;4.35;;
3257;SDS011;1641;51.306;12.384;2023-08-21T02:45:30;7.13;;;4.50;;
3257;SDS011;1641;51.306;12.384;2023-08-21T02:47:56;8.13;;;4.07;;
3257;SDS011;1641;51.306;12.384;2023-08-21T02:50:21;8.25;;;4.97;;
3257;SDS011;1641;51.306;12.384;2023-08-21T02:52:46;6.28;;;4.53;;
3257;SDS011;1641;51.306;12.384;2023-08-21T02:55:12;7.35;;;5.32;;
3257;SDS011;1641;51.306;12.384;2023-08-21T02:57:40;8.20;;;4.53;;
3257;SDS011;1641;51.306;12.384;2023-08-21T03:00:06;5.47;;;4.90;;
3257;SDS011;1641;51.306;12.384;2023-08-21T03:02:33;5.43;;;4.93;;
3257;SDS011;1641;51.306;12.384;2023-08-21T03:04:58;6.60;;;5.13;;
3257;SDS011;1641;51.306;12.384;2023-08-21T03:07:24;8.17;;;5.60;;
3257;SDS011;1641;51.306;12.384;2023-08-21T03:09:49;5.93;;;5.35;;
3257;SDS011;1641;51.306;12.384;2023-08-21T03:12:15;7.72;;;5.35;;
3257;SDS011;1641;51.306;12.384;2023-08-21T03:14:41;13.55;;;5.13;;
3257;SDS011;1641;51.306;12.384;2023-08-21T03:17:06;10.52;;;4.60;;
3257;SDS011;1641;51.306;12.384;2023-08-21T03:19:31;5.95;;;5.00;;
3257;SDS011;1641;51.306;12.384;2023-08-21T03:21:56;8.43;;;5.45;;
3257;SDS011;1641;51.306;12.384;2023-08-21T03:24:22;6.63;;;5.70;;
3257;SDS011;1641;51.306;12.384;2023-08-21T03:26:47;6.82;;;5.20;;
3257;SDS011;1641;51.306;12.384;2023-08-21T03:29:12;6.88;;;5.88;;
3257;SDS011;1641;51.306;12.384;2023-08-21T03:31:38;5.97;;;5.25;;
3257;SDS011;1641;51.306;12.384;2023-08-21T03:34:03;6.15;;;5.28;;
3257;SDS011;1641;51.306;12.384;2023-08-21T03:36:28;10.23;;;5.53;;
3257;SDS011;1641;51.306;12.384;2023-08-21T03:39:00;9.75;;;5.85;;
3257;SDS011;1641;51.306;12.384;2023-08-21T03:41:26;12.25;;;6.10;;
3257;SDS011;1641;51.306;12.384;2023-08-21T03:43:52;12.00;;;5.75;;
3257;SDS011;1641;51.306;12.384;2023-08-21T03:46:17;12.77;;;6.35;;
3257;SDS011;1641;51.306;12.384;2023-08-21T03:48:42;9.20;;;5.63;;
3257;SDS011;1641;51.306;12.384;2023-08-21T03:51:08;6.55;;;5.63;;
3257;SDS011;1641;51.306;12.384;2023-08-21T03:53:33;8.98;;;6.07;;
3257;SDS011;1641;51.306;12.384;2023-08-21T03:56:01;7.93;;;5.43;;
3257;SDS011;1641;51.306;12.384;2023-08-21T03:58:27;7.50;;;6.78;;
3257;SDS011;1641;51.306;12.384;2023-08-21T04:00:52;6.15;;;4.97;;
3257;SDS011;1641;51.306;12.384;2023-08-21T04:03:18;6.93;;;5.63;;
3257;SDS011;1641;51.306;12.384;2023-08-21T04:05:43;9.38;;;6.60;;
3257;SDS011;1641;51.306;12.384;2023-08-21T04:08:09;12.27;;;5.50;;
3257;SDS011;1641;51.306;12.384;2023-08-21T04:10:34;8.00;;;4.65;;
3257;SDS011;1641;51.306;12.384;2023-08-21T04:13:02;9.07;;;5.20;;
3257;SDS011;1641;51.306;12.384;2023-08-21T04:15:28;7.35;;;5.50;;
3257;SDS011;1641;51.306;12.384;2023-08-21T04:17:54;11.25;;;5.43;;
3257;SDS011;1641;51.306;12.384;2023-08-21T04:20:22;8.23;;;5.18;;
3257;SDS011;1641;51.306;12.384;2023-08-21T04:22:48;8.15;;;5.03;;
3257;SDS011;1641;51.306;12.384;2023-08-21T04:25:14;8.38;;;5.28;;
3257;SDS011;1641;51.306;12.384;2023-08-21T04:27:39;12.23;;;5.72;;
3257;SDS011;1641;51.306;12.384;2023-08-21T04:30:05;7.60;;;5.22;;
3257;SDS011;1641;51.306;12.384;2023-08-21T04:32:31;8.68;;;4.63;;
3257;SDS011;1641;51.306;12.384;2023-08-21T04:34:56;10.02;;;5.50;;
3257;SDS011;1641;51.306;12.384;2023-08-21T04:37:21;6.45;;;4.72;;
3257;SDS011;1641;51.306;12.384;2023-08-21T04:39:51;6.40;;;5.20;;
3257;SDS011;1641;51.306;12.384;2023-08-21T04:42:17;8.82;;;5.43;;
3257;SDS011;1641;51.306;12.384;2023-08-21T04:44:42;7.30;;;5.38;;
3257;SDS011;1641;51.306;12.384;2023-08-21T04:47:23;10.27;;;5.30;;
3257;SDS011;1641;51.306;12.384;2023-08-21T04:49:51;7.72;;;5.35;;
3257;SDS011;1641;51.306;12.384;2023-08-21T04:52:17;9.00;;;6.10;;
3257;SDS011;1641;51.306;12.384;2023-08-21T04:54:42;9.48;;;6.68;;
3257;SDS011;1641;51.306;12.384;2023-08-21T04:57:07;9.10;;;6.10;;
3257;SDS011;1641;51.306;12.384;2023-08-21T04:59:33;15.98;;;6.45;;
3257;SDS011;1641;51.306;12.384;2023-08-21T05:01:59;9.55;;;6.03;;
3257;SDS011;1641;51.306;12.384;2023-08-21T05:04:24;7.28;;;5.82;;
3257;SDS011;1641;51.306;12.384;2023-08-21T05:06:50;24.52;;;5.88;;
3257;SDS011;1641;51.306;12.384;2023-08-21T05:09:15;7.78;;;6.75;;
3257;SDS011;1641;51.306;12.384;2023-08-21T05:11:40;9.43;;;6.05;;
3257;SDS011;1641;51.306;12.384;2023-08-21T05:14:06;6.18;;;5.57;;
3257;SDS011;1641;51.306;12.384;2023-08-21T05:16:31;11.82;;;6.18;;
3257;SDS011;1641;51.306;12.384;2023-08-21T05:18:57;11.15;;;6.05;;
3257;SDS011;1641;51.306;12.384;2023-08-21T05:21:22;8.00;;;6.10;;
3257;SDS011;1641;51.306;12.384;2023-08-21T05:23:47;7.65;;;6.13;;
3257;SDS011;1641;51.306;12.384;2023-08-21T05:26:12;8.45;;;6.35;;
3257;SDS011;1641;51.306;12.384;2023-08-21T05:28:38;7.93;;;7.13;;
3257;SDS011;1641;51.306;12.384;2023-08-21T05:31:03;7.15;;;6.45;;
3257;SDS011;1641;51.306;12.384;2023-08-21T05:33:28;9.75;;;6.88;;
3257;SDS011;1641;51.306;12.384;2023-08-21T05:35:54;15.63;;;8.38;;
3257;SDS011;1641;51.306;12.384;2023-08-21T05:38:21;11.48;;;6.53;;
3257;SDS011;1641;51.306;12.384;2023-08-21T05:40:47;9.60;;;7.35;;
3257;SDS011;1641;51.306;12.384;2023-08-21T05:43:13;14.00;;;7.90;;
3257;SDS011;1641;51.306;12.384;2023-08-21T05:45:38;11.40;;;6.85;;
3257;SDS011;1641;51.306;12.384;2023-08-21T05:48:04;14.45;;;7.28;;
3257;SDS011;1641;51.306;12.384;2023-08-21T05:50:29;12.57;;;7.53;;
3257;SDS011;1641;51.306;12.384;2023-08-21T05:52:55;16.48;;;7.43;;
3257;SDS011;1641;51.306;12.384;2023-08-21T05:55:22;8.93;;;7.15;;
3257;SDS011;1641;51.306;12.384;2023-08-21T05:57:47;8.18;;;6.97;;
3257;SDS011;1641;51.306;12.384;2023-08-21T06:00:13;11.80;;;7.68;;
3257;SDS011;1641;51.306;12.384;2023-08-21T06:02:42;12.15;;;7.88;;
3257;SDS011;1641;51.306;12.384;2023-08-21T06:05:08;10.18;;;7.03;;
3257;SDS011;1641;51.306;12.384;2023-08-21T06:07:33;14.90;;;7.30;;
3257;SDS011;1641;51.306;12.384;2023-08-21T06:09:58;13.07;;;7.50;;
3257;SDS011;1641;51.306;12.384;2023-08-21T06:12:24;14.10;;;7.43;;
3257;SDS011;1641;51.306;12.384;2023-08-21T06:14:49;11.23;;;6.78;;
3257;SDS011;1641;51.306;12.384;2023-08-21T06:17:15;9.57;;;6.78;;
3257;SDS011;1641;51.306;12.384;2023-08-21T06:19:40;13.35;;;6.72;;
3257;SDS011;1641;51.306;12.384;2023-08-21T06:22:06;11.43;;;6.03;;
3257;SDS011;1641;51.306;12.384;2023-08-21T06:24:35;6.68;;;5.05;;
3257;SDS011;1641;51.306;12.384;2023-08-21T06:27:00;11.63;;;6.10;;
3257;SDS011;1641;51.306;12.384;2023-08-21T06:29:26;11.73;;;5.95;;
3257;SDS011;1641;51.306;12.384;2023-08-21T06:31:51;15.10;;;6.03;;
3257;SDS011;1641;51.306;12.384;2023-08-21T06:34:16;11.63;;;6.90;;
3257;SDS011;1641;51.306;12.384;2023-08-21T06:36:42;13.67;;;5.87;;
3257;SDS011;1641;51.306;12.384;2023-08-21T06:39:07;11.20;;;5.97;;
3257;SDS011;1641;51.306;12.384;2023-08-21T06:41:32;15.77;;;5.05;;
3257;SDS011;1641;51.306;12.384;2023-08-21T06:43:57;8.93;;;5.40;;
3257;SDS011;1641;51.306;12.384;2023-08-21T06:46:23;10.23;;;5.50;;
3257;SDS011;1641;51.306;12.384;2023-08-21T06:48:49;11.57;;;5.63;;
3257;SDS011;1641;51.306;12.384;2023-08-21T06:51:18;13.43;;;5.88;;
3257;SDS011;1641;51.306;12.384;2023-08-21T06:53:46;12.73;;;5.50;;
3257;SDS011;1641;51.306;12.384;2023-08-21T06:56:11;16.08;;;6.03;;
3257;SDS011;1641;51.306;12.384;2023-08-21T06:58:37;12.88;;;5.50;;
3257;SDS011;1641;51.306;12.384;2023-08-21T07:01:02;10.73;;;6.10;;
3257;SDS011;1641;51.306;12.384;2023-08-21T07:03:27;7.60;;;5.03;;
3257;SDS011;1641;51.306;12.384;2023-08-21T07:05:53;12.63;;;5.75;;
3257;SDS011;1641;51.306;12.384;2023-08-21T07:08:22;11.27;;;5.55;;
3257;SDS011;1641;51.306;12.384;2023-08-21T07:10:48;12.77;;;5.75;;
3257;SDS011;1641;51.306;12.384;2023-08-21T07:13:14;8.85;;;5.10;;
3257;SDS011;1641;51.306;12.384;2023-08-21T07:15:39;11.52;;;4.93;;
3257;SDS011;1641;51.306;12.384;2023-08-21T07:18:04;9.15;;;4.93;;
3257;SDS011;1641;51.306;12.384;2023-08-21T07:20:29;9.93;;;5.47;;
3257;SDS011;1641;51.306;12.384;2023-08-21T07:22:55;9.60;;;5.20;;
3257;SDS011;1641;51.306;12.384;2023-08-21T07:25:20;12.10;;;5.57;;
3257;SDS011;1641;51.306;12.384;2023-08-21T07:27:45;9.18;;;5.20;;
3257;SDS011;1641;51.306;12.384;2023-08-21T07:30:11;9.63;;;5.47;;
3257;SDS011;1641;51.306;12.384;2023-08-21T07:32:36;7.45;;;4.93;;
3257;SDS011;1641;51.306;12.384;2023-08-21T07:35:01;9.07;;;5.72;;
3257;SDS011;1641;51.306;12.384;2023-08-21T07:37:27;7.20;;;5.03;;
3257;SDS011;1641;51.306;12.384;2023-08-21T07:39:52;12.45;;;5.10;;
3257;SDS011;1641;51.306;12.384;2023-08-21T07:42:18;10.23;;;5.45;;
3257;SDS011;1641;51.306;12.384;2023-08-21T07:44:44;7.22;;;5.55;;
3257;SDS011;1641;51.306;12.384;2023-08-21T07:47:10;12.75;;;5.13;;
3257;SDS011;1641;51.306;12.384;2023-08-21T07:49:36;9.48;;;5.60;;
3257;SDS011;1641;51.306;12.384;2023-08-21T07:52:02;8.35;;;5.50;;
3257;SDS011;1641;51.306;12.384;2023-08-21T07:54:28;8.32;;;5.78;;
3257;SDS011;1641;51.306;12.384;2023-08-21T07:56:54;18.98;;;5.88;;
3257;SDS011;1641;51.306;12.384;2023-08-21T07:59:19;9.68;;;5.75;;
3257;SDS011;1641;51.306;12.384;2023-08-21T08:01:45;8.00;;;6.22;;
3257;SDS011;1641;51.306;12.384;2023-08-21T08:04:10;22.40;;;7.18;;
3257;SDS011;1641;51.306;12.384;2023-08-21T08:06:36;7.80;;;6.93;;
3257;SDS011;1641;51.306;12.384;2023-08-21T08:09:01;7.38;;;6.68;;
3257;SDS011;1641;51.306;12.384;2023-08-21T08:11:28;9.48;;;7.30;;
3257;SDS011;1641;51.306;12.384;2023-08-21T08:13:54;11.35;;;7.78;;
3257;SDS011;1641;51.306;12.384;2023-08-21T08:16:19;11.80;;;6.20;;
3257;SDS011;1641;51.306;12.384;2023-08-21T08:18:44;11.43;;;6.50;;
3257;SDS011;1641;51.306;12.384;2023-08-21T08:21:10;7.53;;;6.53;;
3257;SDS011;1641;51.306;12.384;2023-08-21T08:23:36;9.60;;;6.13;;
3257;SDS011;1641;51.306;12.384;2023-08-21T08:26:01;8.60;;;5.28;;
3257;SDS011;1641;51.306;12.384;2023-08-21T08:28:27;12.60;;;4.63;;
3257;SDS011;1641;51.306;12.384;2023-08-21T08:30:52;8.25;;;4.65;;
3257;SDS011;1641;51.306;12.384;2023-08-21T08:33:21;12.18;;;4.38;;
3257;SDS011;1641;51.306;12.384;2023-08-21T08:35:46;9.50;;;4.25;;
3257;SDS011;1641;51.306;12.384;2023-08-21T08:38:11;8.07;;;4.07;;
3257;SDS011;1641;51.306;12.384;2023-08-21T08:40:44;11.10;;;4.65;;
3257;SDS011;1641;51.306;12.384;2023-08-21T08:43:13;13.15;;;4.07;;
3257;SDS011;1641;51.306;12.384;2023-08-21T08:45:39;11.10;;;4.45;;
3257;SDS011;1641;51.306;12.384;2023-08-21T08:48:06;5.57;;;3.60;;
3257;SDS011;1641;51.306;12.384;2023-08-21T08:50:33;8.18;;;3.65;;
3257;SDS011;1641;51.306;12.384;2023-08-21T08:53:01;7.10;;;3.25;;
3257;SDS011;1641;51.306;12.384;2023-08-21T08:55:33;4.90;;;3.67;;
3257;SDS011;1641;51.306;12.384;2023-08-21T08:58:02;8.10;;;3.42;;
3257;SDS011;1641;51.306;12.384;2023-08-21T09:03:24;6.13;;;3.35;;
3257;SDS011;1641;51.306;12.384;2023-08-21T09:05:49;7.28;;;3.65;;
3257;SDS011;1641;51.306;12.384;2023-08-21T09:08:30;5.85;;;3.55;;
3257;SDS011;1641;51.306;12.384;2023-08-21T09:13:56;3.75;;;2.97;;
3257;SDS011;1641;51.306;12.384;2023-08-21T09:16:36;6.35;;;4.13;;
3257;SDS011;1641;51.306;12.384;2023-08-21T09:19:02;5.05;;;2.95;;
3257;SDS011;1641;51.306;12.384;2023-08-21T09:21:27;5.07;;;3.50;;
3257;SDS011;1641;51.306;12.384;2023-08-21T09:24:09;6.95;;;3.22;;
3257;SDS011;1641;51.306;12.384;2023-08-21T09:26:34;5.95;;;3.22;;
3257;SDS011;1641;51.306;12.384;2023-08-21T09:29:03;7.15;;;3.35;;
3257;SDS011;1641;51.306;12.384;2023-08-21T09:31:39;12.55;;;3.53;;
3257;SDS011;1641;51.306;12.384;2023-08-21T09:34:04;14.45;;;3.05;;
3257;SDS011;1641;51.306;12.384;2023-08-21T09:36:45;9.98;;;3.72;;
3257;SDS011;1641;51.306;12.384;2023-08-21T09:39:19;6.90;;;3.97;;
3257;SDS011;1641;51.306;12.384;2023-08-21T09:41:54;7.30;;;3.35;;
3257;SDS011;1641;51.306;12.384;2023-08-21T09:44:20;6.60;;;3.25;;
3257;SDS011;1641;51.306;12.384;2023-08-21T09:46:47;6.88;;;3.53;;
3257;SDS011;1641;51.306;12.384;2023-08-21T09:49:14;13.57;;;5.55;;
3257;SDS011;1641;51.306;12.384;2023-08-21T09:51:41;12.18;;;3.33;;
3257;SDS011;1641;51.306;12.384;2023-08-21T09:54:09;4.28;;;3.10;;
3257;SDS011;1641;51.306;12.384;2023-08-21T09:56:36;6.20;;;2.95;;
3257;SDS011;1641;51.306;12.384;2023-08-21T09:59:02;5.65;;;3.35;;
3257;SDS011;1641;51.306;12.384;2023-08-21T10:01:27;4.72;;;3.97;;
3257;SDS011;1641;51.306;12.384;2023-08-21T10:03:54;14.02;;;3.92;;
3257;SDS011;1641;51.306;12.384;2023-08-21T10:06:31;6.80;;;3.92;;
3257;SDS011;1641;51.306;12.384;2023-08-21T10:08:57;5.43;;;2.90;;
3257;SDS011;1641;51.306;12.384;2023-08-21T10:11:23;3.67;;;3.28;;
3257;SDS011;1641;51.306;12.384;2023-08-21T10:13:49;6.18;;;3.47;;
3257;SDS011;1641;51.306;12.384;2023-08-21T10:16:18;6.28;;;3.17;;
3257;SDS011;1641;51.306;12.384;2023-08-21T10:18:45;4.57;;;3.30;;
3257;SDS011;1641;51.306;12.384;2023-08-21T10:23:47;9.02;;;3.20;;
3257;SDS011;1641;51.306;12.384;2023-08-21T10:26:20;4.68;;;3.33;;
3257;SDS011;1641;51.306;12.384;2023-08-21T10:34:03;7.10;;;3.20;;
3257;SDS011;1641;51.306;12.384;2023-08-21T10:36:36;4.20;;;3.35;;
3257;SDS011;1641;51.306;12.384;2023-08-21T10:39:28;5.00;;;2.75;;
3257;SDS011;1641;51.306;12.384;2023-08-21T10:42:02;4.03;;;2.72;;
3257;SDS011;1641;51.306;12.384;2023-08-21T10:49:40;8.25;;;2.90;;
3257;SDS011;1641;51.306;12.384;2023-08-21T10:52:07;6.00;;;2.95;;
3257;SDS011;1641;51.306;12.384;2023-08-21T10:54:47;7.95;;;3.22;;
3257;SDS011;1641;51.306;12.384;2023-08-21T10:57:14;8.57;;;2.85;;
3257;SDS011;1641;51.306;12.384;2023-08-21T10:59:48;4.40;;;3.10;;
3257;SDS011;1641;51.306;12.384;2023-08-21T11:02:17;6.82;;;3.67;;
3257;SDS011;1641;51.306;12.384;2023-08-21T11:04:43;7.20;;;2.97;;
3257;SDS011;1641;51.306;12.384;2023-08-21T11:07:11;7.05;;;3.10;;
3257;SDS011;1641;51.306;12.384;2023-08-21T11:09:38;3.33;;;3.03;;
3257;SDS011;1641;51.306;12.384;2023-08-21T11:12:07;7.35;;;2.90;;
3257;SDS011;1641;51.306;12.384;2023-08-21T11:14:39;8.98;;;2.50;;
3257;SDS011;1641;51.306;12.384;2023-08-21T11:17:05;9.27;;;3.35;;
3257;SDS011;1641;51.306;12.384;2023-08-21T11:19:31;4.95;;;2.40;;
3257;SDS011;1641;51.306;12.384;2023-08-21T11:21:58;3.00;;;2.33;;
3257;SDS011;1641;51.306;12.384;2023-08-21T11:27:12;6.75;;;2.70;;
3257;SDS011;1641;51.306;12.384;2023-08-21T11:35:09;5.07;;;2.55;;
3257;SDS011;1641;51.306;12.384;2023-08-21T11:37:34;3.70;;;2.78;;
3257;SDS011;1641;51.306;12.384;2023-08-21T11:40:09;5.60;;;2.83;;
3257;SDS011;1641;51.306;12.384;2023-08-21T11:42:35;5.43;;;2.78;;
3257;SDS011;1641;51.306;12.384;2023-08-21T11:45:00;4.07;;;2.40;;
3257;SDS011;1641;51.306;12.384;2023-08-21T11:47:31;5.18;;;2.60;;
3257;SDS011;1641;51.306;12.384;2023-08-21T11:50:02;5.53;;;3.30;;
3257;SDS011;1641;51.306;12.384;2023-08-21T11:52:31;5.07;;;3.10;;
3257;SDS011;1641;51.306;12.384;2023-08-21T11:54:56;4.43;;;2.47;;
3257;SDS011;1641;51.306;12.384;2023-08-21T11:57:23;6.68;;;2.60;;
3257;SDS011;1641;51.306;12.384;2023-08-21T11:59:52;7.75;;;2.80;;
3257;SDS011;1641;51.306;12.384;2023-08-21T12:02:22;7.78;;;3.40;;
3257;SDS011;1641;51.306;12.384;2023-08-21T12:04:52;4.97;;;3.30;;
3257;SDS011;1641;51.306;12.384;2023-08-21T12:07:19;6.30;;;3.35;;
3257;SDS011;1641;51.306;12.384;2023-08-21T12:09:47;4.05;;;3.05;;
3257;SDS011;1641;51.306;12.384;2023-08-21T12:12:16;3.05;;;2.72;;
3257;SDS011;1641;51.306;12.384;2023-08-21T12:14:41;5.78;;;2.60;;
3257;SDS011;1641;51.306;12.384;2023-08-21T12:17:06;5.27;;;3.27;;
3257;SDS011;1641;51.306;12.384;2023-08-21T12:19:32;7.35;;;2.97;;
3257;SDS011;1641;51.306;12.384;2023-08-21T12:21:58;6.80;;;3.33;;
3257;SDS011;1641;51.306;12.384;2023-08-21T12:24:23;5.22;;;3.25;;
3257;SDS011;1641;51.306;12.384;2023-08-21T12:26:49;5.13;;;3.10;;
3257;SDS011;1641;51.306;12.384;2023-08-21T12:29:14;8.05;;;3.38;;
3257;SDS011;1641;51.306;12.384;2023-08-21T12:31:40;4.28;;;2.88;;
3257;SDS011;1641;51.306;12.384;2023-08-21T12:34:05;4.80;;;3.78;;
3257;SDS011;1641;51.306;12.384;2023-08-21T12:36:30;4.38;;;3.83;;
3257;SDS011;1641;51.306;12.384;2023-08-21T12:38:55;6.20;;;3.85;;
3257;SDS011;1641;51.306;12.384;2023-08-21T12:41:21;7.97;;;3.33;;
3257;SDS011;1641;51.306;12.384;2023-08-21T12:43:46;4.47;;;3.60;;
3257;SDS011;1641;51.306;12.384;2023-08-21T12:46:12;6.30;;;3.13;;
3257;SDS011;1641;51.306;12.384;2023-08-21T12:48:38;5.47;;;3.08;;
3257;SDS011;1641;51.306;12.384;2023-08-21T12:51:03;5.68;;;3.85;;
3257;SDS011;1641;51.306;12.384;2023-08-21T12:53:31;5.65;;;3.10;;
3257;SDS011;1641;51.306;12.384;2023-08-21T12:55:56;5.45;;;3.88;;
3257;SDS011;1641;51.306;12.384;2023-08-21T12:58:21;4.03;;;3.10;;
3257;SDS011;1641;51.306;12.384;2023-08-21T13:00:49;4.15;;;2.90;;
3257;SDS011;1641;51.306;12.384;2023-08-21T13:03:15;8.23;;;2.70;;
3257;SDS011;1641;51.306;12.384;2023-08-21T13:05:40;6.18;;;3.00;;
3257;SDS011;1641;51.306;12.384;2023-08-21T13:08:08;8.88;;;2.88;;
3257;SDS011;1641;51.306;12.384;2023-08-21T13:10:34;4.07;;;2.70;;
3257;SDS011;1641;51.306;12.384;2023-08-21T13:12:59;6.30;;;3.17;;
3257;SDS011;1641;51.306;12.384;2023-08-21T13:15:24;5.07;;;2.75;;
3257;SDS011;1641;51.306;12.384;2023-08-21T13:17:50;4.85;;;3.22;;
3257;SDS011;1641;51.306;12.384;2023-08-21T13:20:15;7.05;;;3.05;;
3257;SDS011;1641;51.306;12.384;2023-08-21T13:22:47;9.95;;;4.25;;
3257;SDS011;1641;51.306;12.384;2023-08-21T13:25:14;4.25;;;2.67;;
3257;SDS011;1641;51.306;12.384;2023-08-21T13:27:40;6.38;;;2.70;;
3257;SDS011;1641;51.306;12.384;2023-08-21T13:30:05;3.75;;;3.35;;
3257;SDS011;1641;51.306;12.384;2023-08-21T13:32:32;5.35;;;3.22;;
3257;SDS011;1641;51.306;12.384;2023-08-21T13:34:57;5.90;;;2.95;;
3257;SDS011;1641;51.306;12.384;2023-08-21T13:37:23;6.60;;;2.95;;
3257;SDS011;1641;51.306;12.384;2023-08-21T13:39:48;5.25;;;3.03;;
3257;SDS011;1641;51.306;12.384;2023-08-21T13:42:13;3.30;;;2.70;;
3257;SDS011;1641;51.306;12.384;2023-08-21T13:44:39;17.70;;;3.90;;
3257;SDS011;1641;51.306;12.384;2023-08-21T13:47:04;5.00;;;3.25;;
3257;SDS011;1641;51.306;12.384;2023-08-21T13:49:32;3.25;;;2.58;;
3257;SDS011;1641;51.306;12.384;2023-08-21T13:52:01;7.47;;;2.97;;
3257;SDS011;1641;51.306;12.384;2023-08-21T13:54:27;13.65;;;3.58;;
3257;SDS011;1641;51.306;12.384;2023-08-21T13:56:52;5.32;;;3.22;;
3257;SDS011;1641;51.306;12.384;2023-08-21T13:59:18;4.97;;;2.70;;
3257;SDS011;1641;51.306;12.384;2023-08-21T14:01:44;5.63;;;3.22;;
3257;SDS011;1641;51.306;12.384;2023-08-21T14:04:09;4.40;;;3.60;;
3257;SDS011;1641;51.306;12.384;2023-08-21T14:06:35;8.52;;;3.25;;
3257;SDS011;1641;51.306;12.384;2023-08-21T14:09:01;2.85;;;2.50;;
3257;SDS011;1641;51.306;12.384;2023-08-21T14:11:27;6.97;;;3.10;;
3257;SDS011;1641;51.306;12.384;2023-08-21T14:13:56;3.85;;;2.70;;
3257;SDS011;1641;51.306;12.384;2023-08-21T14:16:25;4.72;;;2.58;;
3257;SDS011;1641;51.306;12.384;2023-08-21T14:18:51;5.15;;;3.17;;
3257;SDS011;1641;51.306;12.384;2023-08-21T14:21:16;4.60;;;2.72;;
3257;SDS011;1641;51.306;12.384;2023-08-21T14:23:45;6.38;;;3.53;;
3257;SDS011;1641;51.306;12.384;2023-08-21T14:26:10;4.82;;;3.00;;
3257;SDS011;1641;51.306;12.384;2023-08-21T14:28:36;3.60;;;2.50;;
3257;SDS011;1641;51.306;12.384;2023-08-21T14:31:01;4.33;;;2.50;;
3257;SDS011;1641;51.306;12.384;2023-08-21T14:33:26;12.73;;;5.55;;
3257;SDS011;1641;51.306;12.384;2023-08-21T14:35:51;6.22;;;2.80;;
3257;SDS011;1641;51.306;12.384;2023-08-21T14:38:19;7.20;;;3.03;;
3257;SDS011;1641;51.306;12.384;2023-08-21T14:40:47;6.70;;;2.92;;
3257;SDS011;1641;51.306;12.384;2023-08-21T14:43:15;5.50;;;2.50;;
3257;SDS011;1641;51.306;12.384;2023-08-21T14:45:41;6.03;;;3.08;;
3257;SDS011;1641;51.306;12.384;2023-08-21T14:48:06;3.65;;;2.65;;
3257;SDS011;1641;51.306;12.384;2023-08-21T14:50:35;4.72;;;2.90;;
3257;SDS011;1641;51.306;12.384;2023-08-21T14:53:01;4.35;;;2.42;;
3257;SDS011;1641;51.306;12.384;2023-08-21T14:55:26;3.05;;;2.75;;
3257;SDS011;1641;51.306;12.384;2023-08-21T14:57:52;5.90;;;2.92;;
3257;SDS011;1641;51.306;12.384;2023-08-21T15:00:17;3.10;;;2.80;;
3257;SDS011;1641;51.306;12.384;2023-08-21T15:02:42;3.42;;;2.88;;
3257;SDS011;1641;51.306;12.384;2023-08-21T15:05:08;4.78;;;2.78;;
3257;SDS011;1641;51.306;12.384;2023-08-21T15:07:34;7.55;;;3.75;;
3257;SDS011;1641;51.306;12.384;2023-08-21T15:10:00;5.18;;;2.88;;
3257;SDS011;1641;51.306;12.384;2023-08-21T15:12:25;6.38;;;3.20;;
3257;SDS011;1641;51.306;12.384;2023-08-21T15:14:51;3.03;;;2.72;;
3257;SDS011;1641;51.306;12.384;2023-08-21T15:17:17;3.40;;;2.60;;
3257;SDS011;1641;51.306;12.384;2023-08-21T15:19:43;11.82;;;7.00;;
3257;SDS011;1641;51.306;12.384;2023-08-21T15:22:08;4.32;;;2.90;;
3257;SDS011;1641;51.306;12.384;2023-08-21T15:24:33;8.68;;;3.63;;
3257;SDS011;1641;51.306;12.384;2023-08-21T15:26:59;4.63;;;2.60;;
3257;SDS011;1641;51.306;12.384;2023-08-21T15:29:24;6.30;;;2.92;;
3257;SDS011;1641;51.306;12.384;2023-08-21T15:31:49;5.10;;;2.70;;
3257;SDS011;1641;51.306;12.384;2023-08-21T15:34:16;5.38;;;2.75;;
3257;SDS011;1641;51.306;12.384;2023-08-21T15:36:41;5.70;;;2.78;;
3257;SDS011;1641;51.306;12.384;2023-08-21T15:39:07;6.28;;;2.35;;
3257;SDS011;1641;51.306;12.384;2023-08-21T15:41:33;3.28;;;2.70;;
3257;SDS011;1641;51.306;12.384;2023-08-21T15:43:58;3.83;;;2.70;;
3257;SDS011;1641;51.306;12.384;2023-08-21T15:46:24;4.30;;;2.93;;
3257;SDS011;1641;51.306;12.384;2023-08-21T15:48:49;5.32;;;2.90;;
3257;SDS011;1641;51.306;12.384;2023-08-21T15:51:15;4.28;;;2.80;;
3257;SDS011;1641;51.306;12.384;2023-08-21T15:53:40;3.90;;;2.67;;
3257;SDS011;1641;51.306;12.384;2023-08-21T15:56:05;8.17;;;2.73;;
3257;SDS011;1641;51.306;12.384;2023-08-21T15:58:31;4.33;;;2.97;;
3257;SDS011;1641;51.306;12.384;2023-08-21T16:01:08;4.63;;;2.92;;
3257;SDS011;1641;51.306;12.384;2023-08-21T16:06:47;4.90;;;3.05;;
3257;SDS011;1641;51.306;12.384;2023-08-21T16:09:13;10.85;;;3.53;;
3257;SDS011;1641;51.306;12.384;2023-08-21T16:11:40;4.20;;;2.92;;
3257;SDS011;1641;51.306;12.384;2023-08-21T16:17:42;11.25;;;4.28;;
3257;SDS011;1641;51.306;12.384;2023-08-21T16:20:08;3.17;;;2.58;;
3257;SDS011;1641;51.306;12.384;2023-08-21T16:22:44;5.82;;;3.00;;
3257;SDS011;1641;51.306;12.384;2023-08-21T16:25:11;4.38;;;2.78;;
3257;SDS011;1641;51.306;12.384;2023-08-21T16:30:41;5.00;;;3.08;;
3257;SDS011;1641;51.306;12.384;2023-08-21T16:33:07;5.93;;;3.05;;
3257;SDS011;1641;51.306;12.384;2023-08-21T16:38:45;7.13;;;2.90;;
3257;SDS011;1641;51.306;12.384;2023-08-21T16:46:48;5.22;;;2.85;;
3257;SDS011;1641;51.306;12.384;2023-08-21T16:52:02;3.00;;;2.65;;
3257;SDS011;1641;51.306;12.384;2023-08-21T16:54:40;5.35;;;3.05;;
3257;SDS011;1641;51.306;12.384;2023-08-21T17:00:00;3.47;;;2.55;;
3257;SDS011;1641;51.306;12.384;2023-08-21T17:02:35;7.80;;;2.80;;
3257;SDS011;1641;51.306;12.384;2023-08-21T17:05:10;3.95;;;2.55;;
3257;SDS011;1641;51.306;12.384;2023-08-21T17:07:45;4.65;;;2.92;;
3257;SDS011;1641;51.306;12.384;2023-08-21T17:10:10;5.93;;;3.53;;
3257;SDS011;1641;51.306;12.384;2023-08-21T17:12:36;8.10;;;3.20;;
3257;SDS011;1641;51.306;12.384;2023-08-21T17:15:03;5.47;;;2.83;;
3257;SDS011;1641;51.306;12.384;2023-08-21T17:17:47;2.90;;;2.58;;
3257;SDS011;1641;51.306;12.384;2023-08-21T17:20:21;4.55;;;2.67;;
3257;SDS011;1641;51.306;12.384;2023-08-21T17:22:56;7.65;;;3.20;;
3257;SDS011;1641;51.306;12.384;2023-08-21T17:25:24;7.68;;;2.97;;
3257;SDS011;1641;51.306;12.384;2023-08-21T17:27:49;5.45;;;2.78;;
3257;SDS011;1641;51.306;12.384;2023-08-21T17:30:19;3.10;;;2.50;;
3257;SDS011;1641;51.306;12.384;2023-08-21T17:32:50;4.63;;;3.10;;
3257;SDS011;1641;51.306;12.384;2023-08-21T17:35:16;3.42;;;2.83;;
3257;SDS011;1641;51.306;12.384;2023-08-21T17:40:48;4.90;;;3.88;;
3257;SDS011;1641;51.306;12.384;2023-08-21T17:43:13;3.20;;;2.72;;
3257;SDS011;1641;51.306;12.384;2023-08-21T17:45:38;11.83;;;2.97;;
3257;SDS011;1641;51.306;12.384;2023-08-21T17:48:04;2.90;;;2.53;;
3257;SDS011;1641;51.306;12.384;2023-08-21T17:50:29;6.00;;;3.35;;
3257;SDS011;1641;51.306;12.384;2023-08-21T17:52:54;6.47;;;3.40;;
3257;SDS011;1641;51.306;12.384;2023-08-21T17:55:20;3.58;;;2.58;;
3257;SDS011;1641;51.306;12.384;2023-08-21T17:57:48;4.28;;;2.85;;
3257;SDS011;1641;51.306;12.384;2023-08-21T18:00:14;7.85;;;3.70;;
3257;SDS011;1641;51.306;12.384;2023-08-21T18:02:43;4.53;;;2.80;;
3257;SDS011;1641;51.306;12.384;2023-08-21T18:05:14;6.40;;;3.13;;
3257;SDS011;1641;51.306;12.384;2023-08-21T18:07:40;11.38;;;3.30;;
3257;SDS011;1641;51.306;12.384;2023-08-21T18:10:06;5.72;;;2.63;;
3257;SDS011;1641;51.306;12.384;2023-08-21T18:12:43;8.68;;;2.90;;
3257;SDS011;1641;51.306;12.384;2023-08-21T18:15:09;3.78;;;2.92;;
3257;SDS011;1641;51.306;12.384;2023-08-21T18:17:35;6.20;;;3.30;;